createdAt,value
2019-02-09T00:00:04.788Z,28.39
2019-02-09T00:02:12.776Z,27.90
2019-02-09T00:04:20.571Z,28.46
2019-02-09T00:06:27.968Z,27.99
2019-02-09T00:08:35.103Z,27.67
2019-02-09T00:10:42.312Z,27.10
2019-02-09T00:12:51.411Z,27.04
2019-02-09T00:15:10.876Z,27.02
2019-02-09T00:17:18.319Z,27.04
2019-02-09T00:19:26.341Z,27.31
2019-02-09T00:21:39.639Z,27.44
2019-02-09T00:23:49.143Z,27.37
2019-02-09T00:26:07.612Z,27.50
2019-02-09T00:28:15.869Z,27.62
2019-02-09T00:30:28.494Z,27.52
2019-02-09T00:32:36.265Z,27.68
2019-02-09T00:34:47.291Z,27.75
2019-02-09T00:36:58.241Z,27.76
2019-02-09T00:39:06.786Z,27.87
2019-02-09T00:41:21.554Z,27.83
2019-02-09T00:43:28.191Z,28.09
2019-02-09T00:45:35.901Z,27.87
2019-02-09T00:47:44.634Z,27.96
2019-02-09T00:49:58.351Z,27.92
2019-02-09T00:52:07.522Z,28.11
2019-02-09T00:54:14.912Z,27.91
2019-02-09T00:56:24.058Z,28.35
2019-02-09T00:58:34.010Z,28.34
2019-02-09T01:00:43.271Z,27.84
2019-02-09T01:02:50.720Z,27.94
2019-02-09T01:04:58.302Z,27.92
2019-02-09T01:07:06.023Z,27.97
2019-02-09T01:09:17.119Z,28.36
2019-02-09T01:11:25.926Z,27.87
2019-02-09T01:13:33.498Z,27.81
2019-02-09T01:15:41.755Z,27.73
2019-02-09T01:17:50.635Z,27.80
2019-02-09T01:19:59.163Z,27.77
2019-02-09T01:22:07.005Z,27.95
2019-02-09T01:24:14.686Z,27.96
2019-02-09T01:26:48.455Z,27.97
2019-02-09T01:28:56.338Z,28.04
2019-02-09T01:31:03.933Z,28.24
2019-02-09T01:33:12.135Z,28.01
2019-02-09T01:35:20.615Z,28.10
2019-02-09T01:37:30.088Z,28.06
2019-02-09T01:39:38.031Z,28.38
2019-02-09T01:44:12.176Z,28.36
2019-02-09T01:46:19.436Z,28.22
2019-02-09T01:48:26.787Z,28.32
2019-02-09T01:50:35.531Z,28.51
2019-02-09T01:52:43.549Z,28.31
2019-02-09T01:54:51.300Z,28.58
2019-02-09T01:56:58.503Z,28.97
2019-02-09T01:59:07.450Z,28.55
2019-02-09T02:01:22.988Z,28.56
2019-02-09T02:03:32.222Z,28.69
2019-02-09T02:05:39.680Z,28.55
2019-02-09T02:07:46.868Z,28.54
2019-02-09T02:09:54.293Z,28.95
2019-02-09T02:12:02.813Z,28.53
2019-02-09T02:14:11.929Z,28.59
2019-02-09T02:16:25.770Z,28.56
2019-02-09T02:18:35.645Z,28.61
2019-02-09T02:20:48.860Z,28.53
2019-02-09T02:22:57.737Z,28.68
2019-02-09T02:25:18.382Z,28.69
2019-02-09T02:27:43.284Z,28.68
2019-02-09T02:29:49.653Z,28.53
2019-02-09T02:31:57.372Z,28.70
2019-02-09T02:34:20.054Z,28.61
2019-02-09T02:41:56.711Z,28.56
2019-02-09T02:44:03.913Z,28.54
2019-02-09T02:46:12.487Z,28.50
2019-02-09T02:48:19.806Z,28.38
2019-02-09T02:50:27.335Z,28.53
2019-02-09T02:52:36.206Z,28.43
2019-02-09T02:54:43.426Z,28.70
2019-02-09T02:56:53.378Z,28.44
2019-02-09T02:59:03.041Z,28.39
2019-02-09T03:01:10.996Z,28.42
2019-02-09T03:03:19.268Z,28.31
2019-02-09T03:05:46.031Z,28.46
2019-02-09T03:08:05.567Z,28.60
2019-02-09T03:10:19.525Z,28.45
2019-02-09T03:12:28.473Z,28.45
2019-02-09T03:17:57.457Z,28.46
2019-02-09T03:20:07.176Z,28.58
2019-02-09T03:22:16.072Z,28.41
2019-02-09T03:24:23.480Z,28.57
2019-02-09T03:26:30.896Z,28.56
2019-02-09T03:28:39.676Z,28.47
2019-02-09T03:30:49.059Z,28.44
2019-02-09T03:32:58.468Z,28.56
2019-02-09T03:35:06.241Z,28.43
2019-02-09T03:37:14.376Z,28.33
2019-02-09T03:39:21.595Z,28.69
2019-02-09T03:41:30.572Z,28.47
2019-02-09T03:43:38.283Z,28.30
2019-02-09T03:45:45.676Z,28.29
2019-02-09T03:47:53.211Z,28.12
2019-02-09T03:50:03.998Z,28.39
2019-02-09T03:52:12.055Z,28.28
2019-02-09T03:54:20.360Z,28.14
2019-02-09T03:56:29.585Z,27.96
2019-02-09T03:58:36.899Z,27.97
2019-02-09T04:00:54.942Z,28.04
2019-02-09T04:02:55.494Z,27.80
2019-02-09T04:05:02.702Z,27.79
2019-02-09T04:07:09.965Z,27.62
2019-02-09T04:09:18.135Z,27.57
2019-02-09T04:11:25.555Z,27.54
2019-02-09T04:13:32.730Z,27.73
2019-02-09T04:15:39.814Z,27.73
2019-02-09T04:17:47.202Z,27.90
2019-02-09T04:19:54.571Z,28.02
2019-02-09T04:22:01.949Z,28.07
2019-02-09T04:24:08.834Z,28.07
2019-02-09T04:26:16.234Z,28.24
2019-02-09T04:28:23.420Z,28.40
2019-02-09T04:30:32.466Z,28.27
2019-02-09T04:32:44.970Z,28.09
2019-02-09T04:34:52.423Z,27.90
2019-02-09T04:37:11.519Z,28.02
2019-02-09T04:39:37.838Z,27.71
2019-02-09T04:41:46.197Z,27.91
2019-02-09T04:43:53.384Z,27.42
2019-02-09T04:46:01.179Z,27.37
2019-02-09T04:48:08.961Z,29.17
2019-02-09T04:50:16.953Z,27.52
2019-02-09T04:52:24.188Z,27.79
2019-02-09T04:54:33.286Z,27.82
2019-02-09T04:56:41.224Z,27.87
2019-02-09T04:58:55.188Z,28.05
2019-02-09T05:01:03.680Z,28.11
2019-02-09T05:03:10.977Z,28.30
2019-02-09T05:05:19.649Z,28.38
2019-02-09T05:07:32.260Z,28.27
2019-02-09T05:09:42.177Z,28.37
2019-02-09T05:11:50.591Z,28.34
2019-02-09T05:14:02.075Z,28.43
2019-02-09T05:16:16.998Z,28.54
2019-02-09T05:18:26.079Z,28.38
2019-02-09T05:20:41.946Z,28.44
2019-02-09T05:22:50.332Z,28.56
2019-02-09T05:24:57.840Z,28.61
2019-02-09T05:27:05.932Z,28.56
2019-02-09T05:29:13.219Z,28.76
2019-02-09T05:31:23.100Z,28.42
2019-02-09T05:33:29.806Z,28.11
2019-02-09T05:35:37.338Z,28.26
2019-02-09T05:37:45.288Z,27.85
2019-02-09T05:39:52.937Z,27.75
2019-02-09T05:42:00.230Z,27.87
2019-02-09T05:44:08.450Z,27.67
2019-02-09T05:46:16.424Z,27.71
2019-02-09T05:48:24.452Z,29.04
2019-02-09T05:50:31.995Z,28.22
2019-02-09T05:52:39.952Z,27.59
2019-02-09T05:54:49.118Z,27.77
2019-02-09T05:56:56.333Z,27.85
2019-02-09T05:59:04.183Z,28.27
2019-02-09T06:01:12.150Z,28.36
2019-02-09T06:03:19.469Z,28.29
2019-02-09T06:05:28.311Z,28.32
2019-02-09T06:07:38.648Z,28.50
2019-02-09T06:09:45.839Z,28.66
2019-02-09T06:11:53.213Z,28.54
2019-02-09T06:14:00.998Z,28.75
2019-02-09T06:16:08.119Z,28.91
2019-02-09T06:18:16.267Z,28.56
2019-02-09T06:20:25.539Z,28.55
2019-02-09T06:22:33.664Z,28.55
2019-02-09T06:24:41.094Z,28.68
2019-02-09T06:26:48.448Z,28.61
2019-02-09T06:28:57.281Z,28.20
2019-02-09T06:31:04.538Z,28.21
2019-02-09T06:33:11.882Z,28.15
2019-02-09T06:35:19.040Z,27.97
2019-02-09T06:37:27.524Z,27.96
2019-02-09T06:39:34.686Z,27.80
2019-02-09T06:41:42.504Z,27.70
2019-02-09T06:43:50.512Z,27.76
2019-02-09T06:45:57.735Z,27.88
2019-02-09T06:48:28.275Z,28.07
2019-02-09T06:50:36.091Z,28.11
2019-02-09T06:52:43.292Z,28.10
2019-02-09T06:54:52.184Z,28.39
2019-02-09T06:56:59.473Z,28.15
2019-02-09T06:59:07.531Z,28.29
2019-02-09T07:01:15.986Z,28.35
2019-02-09T07:03:23.283Z,28.34
2019-02-09T07:05:31.290Z,28.42
2019-02-09T07:07:38.455Z,28.62
2019-02-09T07:09:46.355Z,28.52
2019-02-09T07:11:53.653Z,28.13
2019-02-09T07:14:02.549Z,27.91
2019-02-09T07:16:11.509Z,28.15
2019-02-09T07:18:19.509Z,28.42
2019-02-09T07:20:29.014Z,28.62
2019-02-09T07:22:36.553Z,28.63
2019-02-09T07:24:45.252Z,28.66
2019-02-09T07:26:53.099Z,28.81
2019-02-09T07:29:06.421Z,28.67
2019-02-09T07:31:13.496Z,28.76
2019-02-09T07:33:20.812Z,28.84
2019-02-09T07:35:28.082Z,28.53
2019-02-09T07:37:38.646Z,28.69
2019-02-09T07:39:46.101Z,28.72
2019-02-09T07:41:53.495Z,28.73
2019-02-09T07:44:01.093Z,28.61
2019-02-09T07:46:44.618Z,28.45
2019-02-09T07:48:51.978Z,28.45
2019-02-09T07:51:01.322Z,28.42
2019-02-09T07:53:08.690Z,28.49
2019-02-09T07:55:17.627Z,28.16
2019-02-09T07:57:24.839Z,28.31
2019-02-09T07:59:32.708Z,28.24
2019-02-09T08:01:40.135Z,28.67
2019-02-09T08:03:48.060Z,28.45
2019-02-09T08:05:55.451Z,28.46
2019-02-09T08:08:02.813Z,28.75
2019-02-09T08:10:12.105Z,28.68
2019-02-09T08:12:19.474Z,28.99
2019-02-09T08:14:26.918Z,28.91
2019-02-09T08:16:34.923Z,29.02
2019-02-09T08:18:42.118Z,28.99
2019-02-09T08:20:50.460Z,28.98
2019-02-09T08:22:58.337Z,28.73
2019-02-09T08:25:06.327Z,28.87
2019-02-09T08:27:14.208Z,28.96
2019-02-09T08:29:21.533Z,28.91
2019-02-09T08:31:29.652Z,28.74
2019-02-09T08:33:37.024Z,28.76
2019-02-09T08:35:44.777Z,28.75
2019-02-09T08:37:53.355Z,28.44
2019-02-09T08:40:00.711Z,28.29
2019-02-09T08:42:08.075Z,28.24
2019-02-09T08:44:16.542Z,28.08
2019-02-09T08:46:24.446Z,28.10
2019-02-09T08:48:32.042Z,28.19
2019-02-09T08:50:44.949Z,28.07
2019-02-09T08:52:53.755Z,27.90
2019-02-09T08:55:01.699Z,28.05
2019-02-09T08:57:10.142Z,28.29
2019-02-09T08:59:17.624Z,28.38
2019-02-09T09:01:24.919Z,28.51
2019-02-09T09:03:33.040Z,28.71
2019-02-09T09:05:41.581Z,28.83
2019-02-09T09:07:48.998Z,29.00
2019-02-09T09:09:56.901Z,28.97
2019-02-09T09:12:04.416Z,28.96
2019-02-09T09:14:13.401Z,28.91
2019-02-09T09:16:22.841Z,29.04
2019-02-09T09:18:31.611Z,29.07
2019-02-09T09:20:40.503Z,29.43
2019-02-09T09:22:49.512Z,29.24
2019-02-09T09:24:57.033Z,29.28
2019-02-09T09:27:06.208Z,29.08
2019-02-09T09:29:16.010Z,29.26
2019-02-09T09:31:24.338Z,29.30
2019-02-09T09:33:32.067Z,29.41
2019-02-09T09:35:40.389Z,29.30
2019-02-09T09:37:47.908Z,29.02
2019-02-09T09:39:55.083Z,28.88
2019-02-09T09:42:02.195Z,28.84
2019-02-09T09:44:10.271Z,28.85
2019-02-09T09:46:17.416Z,29.01
2019-02-09T09:48:24.701Z,28.95
2019-02-09T09:50:32.500Z,29.09
2019-02-09T09:52:39.731Z,28.92
2019-02-09T09:54:47.634Z,28.70
2019-02-09T09:56:54.847Z,28.55
2019-02-09T09:59:02.908Z,28.45
2019-02-09T10:01:10.021Z,28.45
2019-02-09T10:03:17.891Z,28.42
2019-02-09T10:05:25.020Z,28.26
2019-02-09T10:07:32.181Z,28.42
2019-02-09T10:09:39.525Z,28.36
2019-02-09T10:11:46.559Z,28.69
2019-02-09T10:13:53.856Z,28.88
2019-02-09T10:16:02.043Z,28.44
2019-02-09T10:18:09.198Z,28.74
2019-02-09T10:20:19.509Z,28.85
2019-02-09T10:22:26.835Z,28.89
2019-02-09T10:24:33.675Z,29.05
2019-02-09T10:26:40.916Z,29.10
2019-02-09T10:28:49.335Z,28.94
2019-02-09T10:30:56.487Z,29.19
2019-02-09T10:33:03.686Z,29.08
2019-02-09T10:35:11.783Z,29.17
2019-02-09T10:37:19.163Z,29.31
2019-02-09T10:39:27.085Z,29.34
2019-02-09T10:41:34.504Z,28.91
2019-02-09T10:43:42.426Z,28.99
2019-02-09T10:45:50.169Z,28.94
2019-02-09T10:47:58.185Z,29.09
2019-02-09T10:50:06.400Z,28.81
2019-02-09T10:52:13.681Z,28.61
2019-02-09T10:54:20.886Z,28.63
2019-02-09T10:56:28.775Z,28.60
2019-02-09T10:58:36.300Z,28.75
2019-02-09T11:01:09.950Z,28.46
2019-02-09T11:03:18.022Z,28.24
2019-02-09T11:05:25.341Z,28.18
2019-02-09T11:07:32.630Z,28.35
2019-02-09T11:09:39.976Z,28.13
2019-02-09T11:11:47.335Z,28.39
2019-02-09T11:13:54.315Z,28.62
2019-02-09T11:16:01.701Z,28.82
2019-02-09T11:18:09.872Z,28.88
2019-02-09T11:20:19.759Z,28.63
2019-02-09T11:22:28.538Z,28.67
2019-02-09T11:24:36.226Z,28.68
2019-02-09T11:26:43.383Z,28.91
2019-02-09T11:28:50.786Z,28.99
2019-02-09T11:30:58.281Z,29.29
2019-02-09T11:33:05.907Z,29.34
2019-02-09T11:35:13.874Z,29.50
2019-02-09T11:37:21.343Z,28.62
2019-02-09T11:39:30.652Z,28.94
2019-02-09T11:41:39.041Z,29.02
2019-02-09T11:43:47.597Z,28.99
2019-02-09T11:45:59.322Z,28.90
2019-02-09T11:48:07.108Z,28.81
2019-02-09T11:50:14.868Z,28.68
2019-02-09T11:52:22.347Z,28.82
2019-02-09T11:54:29.332Z,28.70
2019-02-09T11:56:37.267Z,28.70
2019-02-09T11:58:44.428Z,28.51
2019-02-09T12:00:54.605Z,28.32
2019-02-09T12:03:12.746Z,28.21
2019-02-09T12:05:11.109Z,28.14
2019-02-09T12:07:18.377Z,28.06
2019-02-09T12:09:25.797Z,28.19
2019-02-09T12:11:33.338Z,28.10
2019-02-09T12:13:40.559Z,28.27
2019-02-09T12:15:47.933Z,28.56
2019-02-09T12:17:55.446Z,28.42
2019-02-09T12:20:02.652Z,28.59
2019-02-09T12:22:09.812Z,28.36
2019-02-09T12:24:17.147Z,28.71
2019-02-09T12:26:24.994Z,28.82
2019-02-09T12:28:32.499Z,29.02
2019-02-09T12:30:40.568Z,29.22
2019-02-09T12:32:48.406Z,29.27
2019-02-09T12:34:55.725Z,29.10
2019-02-09T12:37:03.769Z,28.64
2019-02-09T12:39:13.092Z,28.86
2019-02-09T12:41:20.409Z,29.06
2019-02-09T12:43:27.759Z,29.06
2019-02-09T12:45:36.089Z,28.85
2019-02-09T12:47:43.322Z,28.73
2019-02-09T12:49:50.787Z,28.72
2019-02-09T12:51:58.273Z,28.53
2019-02-09T12:54:05.941Z,28.45
2019-02-09T12:56:13.176Z,28.37
2019-02-09T12:58:20.307Z,28.35
2019-02-09T13:00:29.565Z,28.25
2019-02-09T13:02:37.010Z,28.54
2019-02-09T13:04:44.508Z,28.34
2019-02-09T13:06:52.487Z,28.22
2019-02-09T13:08:59.705Z,28.07
2019-02-09T13:11:06.784Z,28.11
2019-02-09T13:13:14.260Z,28.00
2019-02-09T13:15:23.518Z,28.04
2019-02-09T13:17:30.827Z,28.07
2019-02-09T13:19:38.131Z,28.02
2019-02-09T13:21:45.614Z,27.93
2019-02-09T13:23:52.683Z,27.93
2019-02-09T13:25:59.976Z,27.87
2019-02-09T13:28:07.905Z,27.88
2019-02-09T13:30:25.432Z,27.88
2019-02-09T13:32:32.654Z,28.19
2019-02-09T13:34:39.992Z,27.95
2019-02-09T13:36:47.598Z,27.73
2019-02-09T13:38:54.853Z,27.71
2019-02-09T13:41:02.408Z,27.69
2019-02-09T13:43:24.767Z,27.65
2019-02-09T13:45:40.153Z,27.64
2019-02-09T13:48:01.870Z,27.63
2019-02-09T13:50:10.198Z,27.49
2019-02-09T13:52:17.472Z,27.49
2019-02-09T13:54:24.786Z,27.38
2019-02-09T13:56:32.239Z,27.63
2019-02-09T13:58:39.540Z,27.66
2019-02-09T14:00:46.901Z,27.29
2019-02-09T14:02:54.155Z,27.29
2019-02-09T14:05:01.371Z,27.26
2019-02-09T14:07:09.250Z,27.24
2019-02-09T14:09:16.571Z,27.20
2019-02-09T14:11:23.870Z,27.52
2019-02-09T14:13:31.244Z,27.14
2019-02-09T14:15:38.728Z,27.57
2019-02-09T14:17:46.193Z,27.03
2019-02-09T14:19:53.644Z,26.98
2019-02-09T14:22:01.040Z,26.76
2019-02-09T14:24:08.250Z,26.74
2019-02-09T14:26:15.334Z,26.70
2019-02-09T14:28:24.584Z,26.67
2019-02-09T14:30:32.660Z,26.58
2019-02-09T14:32:39.798Z,26.70
2019-02-09T14:34:47.122Z,26.65
2019-02-09T14:36:54.634Z,26.80
2019-02-09T14:39:01.790Z,27.03
2019-02-09T14:41:09.667Z,26.65
2019-02-09T14:43:16.800Z,26.92
2019-02-09T14:45:25.873Z,27.06
2019-02-09T14:47:33.707Z,27.25
2019-02-09T14:49:40.935Z,27.38
2019-02-09T14:51:49.221Z,27.39
2019-02-09T14:53:56.888Z,27.01
2019-02-09T14:56:04.956Z,27.34
2019-02-09T14:58:12.247Z,27.40
2019-02-09T15:00:21.995Z,27.57
2019-02-09T15:02:29.341Z,27.47
2019-02-09T15:04:36.611Z,27.26
2019-02-09T15:06:44.014Z,27.09
2019-02-09T15:08:52.126Z,27.14
2019-02-09T15:10:59.306Z,26.97
2019-02-09T15:13:07.147Z,26.98
2019-02-09T15:15:23.381Z,26.83
2019-02-09T15:17:30.679Z,27.00
2019-02-09T15:19:40.283Z,26.90
2019-02-09T15:21:49.514Z,27.07
2019-02-09T15:23:57.806Z,27.21
2019-02-09T15:26:06.176Z,27.14
2019-02-09T15:28:14.408Z,26.91
2019-02-09T15:30:24.035Z,26.71
2019-02-09T15:32:31.742Z,26.48
2019-02-09T15:34:39.270Z,26.64
2019-02-09T15:36:47.433Z,26.91
2019-02-09T15:38:55.334Z,27.25
2019-02-09T15:41:04.314Z,27.42
2019-02-09T15:43:12.034Z,27.46
2019-02-09T15:45:21.716Z,27.37
2019-02-09T15:47:29.579Z,26.85
2019-02-09T15:49:37.350Z,27.21
2019-02-09T15:51:46.995Z,27.50
2019-02-09T15:53:54.162Z,27.33
2019-02-09T15:56:02.705Z,27.07
2019-02-09T15:58:10.398Z,27.11
2019-02-09T16:00:26.760Z,26.95
2019-02-09T16:02:38.529Z,26.92
2019-02-09T16:04:46.292Z,27.32
2019-02-09T16:06:53.484Z,26.88
2019-02-09T16:09:00.830Z,26.47
2019-02-09T16:11:08.399Z,26.73
2019-02-09T16:13:16.547Z,26.57
2019-02-09T16:15:25.549Z,26.63
2019-02-09T16:17:34.278Z,26.66
2019-02-09T16:19:41.395Z,26.65
2019-02-09T16:21:48.652Z,27.61
2019-02-09T16:23:56.121Z,27.21
2019-02-09T16:26:04.130Z,27.15
2019-02-09T16:28:11.369Z,27.11
2019-02-09T16:30:20.968Z,27.15
2019-02-09T16:32:28.297Z,28.11
2019-02-09T16:34:35.660Z,27.75
2019-02-09T16:36:42.888Z,27.91
2019-02-09T16:38:50.425Z,27.91
2019-02-09T16:40:57.941Z,30.23
2019-02-09T16:43:05.952Z,27.66
2019-02-09T16:45:17.038Z,32.04
2019-02-09T16:47:24.935Z,27.37
2019-02-09T16:49:32.828Z,27.05
2019-02-09T16:51:41.111Z,26.13
2019-02-09T16:53:49.279Z,26.31
2019-02-09T16:55:56.759Z,26.46
2019-02-09T16:58:03.997Z,26.72
2019-02-09T17:00:12.836Z,26.75
2019-02-09T17:02:20.117Z,27.06
2019-02-09T17:04:33.092Z,26.98
2019-02-09T17:06:36.707Z,27.15
2019-02-09T17:08:43.858Z,26.98
2019-02-09T17:10:53.111Z,27.04
2019-02-09T17:13:00.558Z,27.03
2019-02-09T17:15:08.544Z,27.05
2019-02-09T17:17:16.636Z,27.06
2019-02-09T17:19:25.156Z,27.41
2019-02-09T17:21:34.269Z,27.47
2019-02-09T17:23:41.651Z,27.76
2019-02-09T17:25:49.140Z,27.54
2019-02-09T17:27:56.581Z,28.60
2019-02-09T17:30:03.916Z,26.84
2019-02-09T17:32:11.049Z,27.31
2019-02-09T17:34:19.042Z,26.80
2019-02-09T17:36:27.089Z,27.03
2019-02-09T17:38:34.262Z,28.45
2019-02-09T17:40:48.868Z,26.54
2019-02-09T17:42:56.948Z,31.36
2019-02-09T17:45:04.188Z,26.88
2019-02-09T17:47:11.662Z,26.20
2019-02-09T17:49:18.763Z,26.29
2019-02-09T17:51:26.146Z,26.11
2019-02-09T17:53:33.614Z,26.04
2019-02-09T17:55:40.911Z,25.98
2019-02-09T17:57:48.731Z,26.09
2019-02-09T17:59:56.165Z,26.26
2019-02-09T18:02:04.047Z,26.29
2019-02-09T18:04:11.285Z,26.57
2019-02-09T18:06:50.344Z,26.48
2019-02-09T18:09:14.703Z,26.64
2019-02-09T18:11:22.852Z,26.70
2019-02-09T18:13:49.802Z,26.94
2019-02-09T18:15:57.804Z,26.72
2019-02-09T18:18:06.545Z,27.00
2019-02-09T18:20:15.542Z,27.04
2019-02-09T18:22:23.269Z,27.15
2019-02-09T18:24:30.536Z,27.19
2019-02-09T18:26:37.866Z,27.07
2019-02-09T18:28:45.470Z,27.09
2019-02-09T18:30:52.736Z,27.16
2019-02-09T18:32:59.944Z,26.91
2019-02-09T18:35:07.954Z,27.00
2019-02-09T18:37:15.127Z,26.98
2019-02-09T18:39:22.514Z,26.93
2019-02-09T18:41:29.972Z,27.41
2019-02-09T18:43:37.207Z,26.97
2019-02-09T18:45:44.484Z,27.21
2019-02-09T18:47:51.709Z,27.35
2019-02-09T18:49:59.081Z,27.24
2019-02-09T18:52:06.561Z,31.68
2019-02-09T18:54:14.387Z,27.48
2019-02-09T18:56:21.899Z,27.69
2019-02-09T18:58:28.998Z,27.67
2019-02-09T19:00:37.414Z,27.80
2019-02-09T19:02:44.916Z,27.26
2019-02-09T19:04:52.451Z,26.09
2019-02-09T19:06:59.888Z,26.09
2019-02-09T19:09:09.331Z,26.11
2019-02-09T19:11:17.060Z,26.24
2019-02-09T19:13:24.337Z,26.39
2019-02-09T19:15:31.667Z,26.52
2019-02-09T19:17:39.083Z,28.99
2019-02-09T19:19:47.513Z,26.85
2019-02-09T19:21:54.773Z,26.95
2019-02-09T19:24:02.107Z,27.43
2019-02-09T19:26:10.055Z,27.05
2019-02-09T19:28:17.454Z,26.63
2019-02-09T19:30:25.178Z,26.24
2019-02-09T19:32:32.602Z,26.18
2019-02-09T19:34:40.806Z,26.01
2019-02-09T19:36:48.091Z,24.96
2019-02-09T19:38:56.501Z,25.26
2019-02-09T19:41:03.753Z,25.82
2019-02-09T19:43:13.161Z,26.05
2019-02-09T19:45:24.643Z,26.19
2019-02-09T19:47:31.457Z,26.18
2019-02-09T19:49:38.292Z,26.19
2019-02-09T19:51:45.833Z,26.19
2019-02-09T19:53:53.985Z,26.24
2019-02-09T19:56:01.063Z,26.23
2019-02-09T19:58:09.144Z,26.30
2019-02-09T20:00:22.203Z,28.07
2019-02-09T20:02:29.531Z,27.20
2019-02-09T20:04:36.793Z,29.37
2019-02-09T20:06:44.513Z,28.36
2019-02-09T20:08:54.506Z,25.92
2019-02-09T20:11:01.839Z,26.31
2019-02-09T20:13:10.241Z,25.96
2019-02-09T20:15:18.323Z,25.41
2019-02-09T20:17:25.644Z,25.47
2019-02-09T20:19:33.053Z,25.56
2019-02-09T20:21:42.735Z,25.69
2019-02-09T20:23:50.608Z,25.88
2019-02-09T20:25:58.788Z,25.89
2019-02-09T20:28:06.413Z,25.97
2019-02-09T20:30:23.887Z,26.10
2019-02-09T20:32:31.070Z,26.21
2019-02-09T20:34:38.176Z,26.24
2019-02-09T20:36:47.157Z,26.28
2019-02-09T20:38:55.480Z,26.26
2019-02-09T20:41:05.784Z,26.56
2019-02-09T20:43:14.592Z,26.48
2019-02-09T20:45:22.093Z,26.43
2019-02-09T20:47:29.410Z,26.53
2019-02-09T20:49:38.310Z,26.82
2019-02-09T20:51:58.314Z,28.92
2019-02-09T20:54:35.415Z,27.77
2019-02-09T20:57:58.146Z,26.16
2019-02-09T20:59:20.144Z,25.87
2019-02-09T21:01:25.959Z,26.58
2019-02-09T21:06:33.655Z,26.00
2019-02-09T21:08:56.325Z,26.20
2019-02-09T21:11:13.336Z,26.19
2019-02-09T21:13:27.357Z,26.51
2019-02-09T21:15:47.397Z,26.63
2019-02-09T21:18:17.817Z,26.71
2019-02-09T21:22:59.993Z,26.80
2019-02-09T21:25:08.318Z,27.45
2019-02-09T21:27:15.687Z,27.34
2019-02-09T21:29:25.936Z,28.10
2019-02-09T21:31:33.053Z,27.72
2019-02-09T21:36:38.193Z,29.94
2019-02-09T21:38:55.351Z,29.63
2019-02-09T21:41:04.937Z,27.83
2019-02-09T21:43:25.244Z,27.39
2019-02-09T21:45:57.514Z,27.55
2019-02-09T21:50:22.790Z,27.36
2019-02-09T21:52:30.593Z,27.67
2019-02-09T21:54:37.958Z,27.58
2019-02-09T21:56:45.786Z,27.35
2019-02-09T21:58:53.161Z,27.61
2019-02-09T22:01:01.585Z,27.66
2019-02-09T22:03:11.075Z,28.28
2019-02-09T22:05:18.628Z,28.72
2019-02-09T22:07:26.538Z,28.78
2019-02-09T22:09:34.385Z,27.49
2019-02-09T22:11:59.032Z,27.93
2019-02-09T22:14:22.250Z,27.61
2019-02-09T22:16:29.802Z,27.69
2019-02-09T22:18:38.183Z,27.16
2019-02-09T22:20:53.005Z,26.89
2019-02-09T22:23:16.808Z,26.99
2019-02-09T22:25:25.045Z,27.13
2019-02-09T22:30:04.062Z,27.39
2019-02-09T22:32:11.748Z,27.38
2019-02-09T22:34:28.264Z,27.70
2019-02-09T22:36:50.973Z,28.06
2019-02-09T22:39:29.540Z,28.35
2019-02-09T22:41:49.088Z,27.77
2019-02-09T22:43:55.004Z,27.76
2019-02-09T22:46:07.852Z,27.80
2019-02-09T22:48:15.303Z,28.14
2019-02-09T22:50:38.393Z,28.82
2019-02-09T22:52:40.974Z,28.46
2019-02-09T22:54:48.133Z,28.07
2019-02-09T22:56:55.534Z,29.25
2019-02-09T22:59:03.610Z,27.83
2019-02-09T23:01:49.660Z,27.55
2019-02-09T23:04:24.276Z,27.51
2019-02-09T23:06:55.855Z,27.56
2019-02-09T23:09:23.277Z,27.55
2019-02-09T23:11:31.325Z,27.26
2019-02-09T23:13:38.602Z,27.54
2019-02-09T23:15:45.826Z,27.66
2019-02-09T23:17:53.176Z,27.97
2019-02-09T23:20:00.613Z,28.30
2019-02-09T23:22:07.744Z,28.35
2019-02-09T23:24:14.953Z,28.30
2019-02-09T23:26:22.118Z,28.58
2019-02-09T23:28:30.004Z,28.42
2019-02-09T23:30:37.194Z,28.35
2019-02-09T23:32:44.410Z,28.40
2019-02-09T23:34:51.667Z,26.54
2019-02-09T23:36:59.088Z,28.09
2019-02-09T23:39:07.581Z,27.93
2019-02-09T23:41:15.675Z,28.76
2019-02-09T23:43:22.852Z,28.07
2019-02-09T23:45:30.310Z,27.63
2019-02-09T23:47:37.551Z,27.51
2019-02-09T23:49:44.904Z,27.45
2019-02-09T23:51:52.889Z,27.74
2019-02-09T23:54:06.291Z,28.11
2019-02-09T23:56:30.942Z,27.27
2019-02-09T23:58:46.969Z,27.66
